createdAt,value
2019-04-27T03:01:21.530Z,9.60
2019-04-27T03:03:50.795Z,9.50
2019-04-27T03:06:20.244Z,9.50
2019-04-27T03:08:53.883Z,9.50
2019-04-27T03:11:23.443Z,9.40
2019-04-27T03:13:54.104Z,9.30
2019-04-27T03:16:25.241Z,9.20
2019-04-27T03:19:18.192Z,9.20
2019-04-27T03:22:01.360Z,9.10
2019-04-27T03:24:49.790Z,9.10
2019-04-27T03:27:20.868Z,9.10
2019-04-27T03:29:50.381Z,9.00
2019-04-27T03:32:22.580Z,9.00
2019-04-27T03:34:52.369Z,9.00
2019-04-27T03:37:22.187Z,8.80
2019-04-27T03:39:51.459Z,8.80
2019-04-27T03:42:21.191Z,8.70
2019-04-27T03:44:50.559Z,8.70
2019-04-27T03:47:20.146Z,8.70
2019-04-27T03:49:50.703Z,8.60
2019-04-27T03:52:34.607Z,8.60
2019-04-27T03:55:05.656Z,8.60
2019-04-27T03:57:36.561Z,8.50
2019-04-27T04:00:10.555Z,8.50
2019-04-27T04:02:40.640Z,8.40
2019-04-27T04:05:10.161Z,8.50
2019-04-27T04:07:40.389Z,8.50
2019-04-27T04:10:10.814Z,8.40
2019-04-27T04:12:50.109Z,8.40
2019-04-27T04:15:36.259Z,8.50
2019-04-27T04:18:05.595Z,8.50
2019-04-27T04:20:35.832Z,8.50
2019-04-27T04:23:05.136Z,8.60
2019-04-27T04:25:34.683Z,8.60
2019-04-27T04:28:03.940Z,8.70
2019-04-27T04:30:33.484Z,8.70
2019-04-27T04:33:02.820Z,8.70
2019-04-27T04:35:33.330Z,8.70
2019-04-27T04:38:03.062Z,8.80
2019-04-27T04:40:50.303Z,8.90
2019-04-27T04:43:29.309Z,9.00
2019-04-27T04:45:59.791Z,9.10
2019-04-27T04:48:30.247Z,9.10
2019-04-27T04:51:00.133Z,9.20
2019-04-27T04:53:29.515Z,9.20
2019-04-27T04:56:00.336Z,9.30
2019-04-27T04:58:29.783Z,9.30
2019-04-27T05:00:59.566Z,9.30
2019-04-27T05:03:30.462Z,9.30
2019-04-27T05:05:59.731Z,9.40
2019-04-27T05:08:29.275Z,9.50
2019-04-27T05:10:59.686Z,9.40
2019-04-27T05:13:29.432Z,9.40
2019-04-27T05:15:58.989Z,9.40
2019-04-27T05:18:29.311Z,9.40
2019-04-27T05:21:15.490Z,9.50
2019-04-27T05:23:44.743Z,9.60
2019-04-27T05:26:14.014Z,9.70
2019-04-27T05:28:43.286Z,9.70
2019-04-27T05:31:12.554Z,9.70
2019-04-27T05:33:42.051Z,9.70
2019-04-27T05:36:11.315Z,9.80
2019-04-27T05:38:45.998Z,9.80
2019-04-27T05:41:11.534Z,9.80
2019-04-27T05:43:58.996Z,9.90
2019-04-27T05:46:46.098Z,9.90
2019-04-27T05:49:32.143Z,10.00
2019-04-27T05:52:01.410Z,10.00
2019-04-27T05:54:30.687Z,10.10
2019-04-27T05:56:59.955Z,10.10
2019-04-27T05:59:29.907Z,10.20
2019-04-27T06:01:59.545Z,10.30
2019-04-27T06:04:29.857Z,10.40
2019-04-27T06:07:01.085Z,10.50
2019-04-27T06:09:30.099Z,10.50
2019-04-27T06:11:59.366Z,10.60
2019-04-27T06:14:29.244Z,10.70
2019-04-27T06:16:59.631Z,10.70
2019-04-27T06:19:29.994Z,10.80
2019-04-27T06:22:01.281Z,10.90
2019-04-27T06:24:30.222Z,10.90
2019-04-27T06:26:59.780Z,11.00
2019-04-27T06:29:29.396Z,11.10
2019-04-27T06:31:59.686Z,11.10
2019-04-27T06:34:30.997Z,11.20
2019-04-27T06:37:00.161Z,11.30
2019-04-27T06:39:29.936Z,11.40
2019-04-27T06:42:01.254Z,11.40
2019-04-27T06:44:31.211Z,11.50
2019-04-27T06:47:00.470Z,11.60
2019-04-27T06:49:29.737Z,11.70
2019-04-27T06:51:59.010Z,11.80
2019-04-27T06:54:28.867Z,12.00
2019-04-27T06:56:59.251Z,12.10
2019-04-27T06:59:28.982Z,12.30
2019-04-27T07:02:00.530Z,12.40
2019-04-27T07:04:29.511Z,12.60
2019-04-27T07:06:59.426Z,12.60
2019-04-27T07:09:29.771Z,12.70
2019-04-27T07:11:59.378Z,12.90
2019-04-27T07:14:29.502Z,13.10
2019-04-27T07:16:59.230Z,13.40
2019-04-27T07:19:29.967Z,13.50
2019-04-27T07:21:59.614Z,13.70
2019-04-27T07:24:29.355Z,13.60
2019-04-27T07:26:59.619Z,13.50
2019-04-27T07:29:29.386Z,13.50
2019-04-27T07:31:59.666Z,13.60
2019-04-27T07:34:30.470Z,13.70
2019-04-27T07:36:59.948Z,14.00
2019-04-27T07:39:29.531Z,14.10
2019-04-27T07:41:58.823Z,14.30
2019-04-27T07:44:41.546Z,14.10
2019-04-27T07:47:30.754Z,14.30
2019-04-27T07:50:01.353Z,14.30
2019-04-27T07:52:31.336Z,14.30
2019-04-27T07:55:00.594Z,14.30
2019-04-27T07:57:29.854Z,14.40
2019-04-27T07:59:59.686Z,14.50
2019-04-27T08:02:29.163Z,14.70
2019-04-27T08:04:59.567Z,14.80
2019-04-27T08:07:29.223Z,15.00
2019-04-27T08:10:01.048Z,15.00
2019-04-27T08:12:29.506Z,15.00
2019-04-27T08:15:00.080Z,14.80
2019-04-27T08:17:30.304Z,14.80
2019-04-27T08:19:59.699Z,14.40
2019-04-27T08:22:29.189Z,14.30
2019-04-27T08:24:59.471Z,14.40
2019-04-27T08:27:33.455Z,14.40
2019-04-27T08:30:04.649Z,14.60
2019-04-27T08:32:35.811Z,14.80
2019-04-27T08:35:06.778Z,14.60
2019-04-27T08:37:36.047Z,14.50
2019-04-27T08:40:06.755Z,14.40
2019-04-27T08:42:36.094Z,14.50
2019-04-27T08:45:06.602Z,14.50
2019-04-27T08:47:35.867Z,14.30
2019-04-27T08:50:05.266Z,14.20
2019-04-27T08:52:34.539Z,13.90
2019-04-27T08:55:09.597Z,13.80
2019-04-27T08:57:39.207Z,13.60
2019-04-27T09:00:09.566Z,13.30
2019-04-27T09:02:46.502Z,13.20
2019-04-27T09:05:10.491Z,13.40
2019-04-27T09:07:41.437Z,13.30
2019-04-27T09:10:15.454Z,13.30
2019-04-27T09:13:02.584Z,13.30
2019-04-27T09:15:36.687Z,13.40
2019-04-27T09:18:05.967Z,13.40
2019-04-27T09:20:38.859Z,13.50
2019-04-27T09:23:09.719Z,13.40
2019-04-27T09:25:39.719Z,13.30
2019-04-27T09:28:09.070Z,13.20
2019-04-27T09:30:39.272Z,13.30
2019-04-27T09:33:08.678Z,13.20
2019-04-27T09:35:37.945Z,13.20
2019-04-27T09:38:07.220Z,13.20
2019-04-27T09:40:36.703Z,13.20
2019-04-27T09:43:07.530Z,13.20
2019-04-27T09:45:37.238Z,13.30
2019-04-27T09:48:07.850Z,13.50
2019-04-27T09:50:37.126Z,13.50
2019-04-27T09:53:06.521Z,13.50
2019-04-27T09:55:36.890Z,13.70
2019-04-27T09:58:06.235Z,13.70
2019-04-27T10:00:36.434Z,13.70
2019-04-27T10:03:06.618Z,13.90
2019-04-27T10:05:36.686Z,14.00
2019-04-27T10:08:06.382Z,14.00
2019-04-27T10:10:37.144Z,14.10
2019-04-27T10:13:07.119Z,14.10
2019-04-27T10:15:36.406Z,14.20
2019-04-27T10:18:06.095Z,14.30
2019-04-27T10:20:39.005Z,14.40
2019-04-27T10:23:06.699Z,14.60
2019-04-27T10:25:37.482Z,14.80
2019-04-27T10:28:06.974Z,14.90
2019-04-27T10:30:36.211Z,14.80
2019-04-27T10:33:07.728Z,14.90
2019-04-27T10:35:36.488Z,15.00
2019-04-27T10:38:05.782Z,15.10
2019-04-27T10:40:35.054Z,15.30
2019-04-27T10:43:06.161Z,15.10
2019-04-27T10:45:35.763Z,15.00
2019-04-27T10:48:06.398Z,14.80
2019-04-27T10:50:36.605Z,14.50
2019-04-27T10:53:06.905Z,14.30
2019-04-27T10:55:36.590Z,14.20
2019-04-27T10:58:06.066Z,14.00
2019-04-27T11:00:39.815Z,13.80
2019-04-27T11:03:09.303Z,13.80
2019-04-27T11:05:57.000Z,13.70
2019-04-27T11:08:26.327Z,13.70
2019-04-27T11:10:56.408Z,13.70
2019-04-27T11:13:27.019Z,13.80
2019-04-27T11:15:56.291Z,13.90
2019-04-27T11:18:25.918Z,14.00
2019-04-27T11:20:56.751Z,14.10
2019-04-27T11:23:26.295Z,14.20
2019-04-27T11:25:55.551Z,14.40
2019-04-27T11:28:25.859Z,14.40
2019-04-27T11:30:55.160Z,14.30
2019-04-27T11:33:26.242Z,14.40
2019-04-27T11:35:59.939Z,14.40
2019-04-27T11:38:29.226Z,14.30
2019-04-27T11:40:58.482Z,14.20
2019-04-27T11:43:28.726Z,14.10
2019-04-27T11:45:57.994Z,13.90
2019-04-27T11:48:27.251Z,13.80
2019-04-27T11:50:56.519Z,13.70
2019-04-27T11:53:26.311Z,13.60
2019-04-27T11:55:55.622Z,13.70
2019-04-27T11:58:26.494Z,14.00
2019-04-27T12:00:55.827Z,14.40
2019-04-27T12:03:25.155Z,14.80
2019-04-27T12:05:59.486Z,15.00
2019-04-27T12:08:26.448Z,15.00
2019-04-27T12:10:55.847Z,14.80
2019-04-27T12:13:26.179Z,14.50
2019-04-27T12:15:55.446Z,14.40
2019-04-27T12:18:24.714Z,14.50
2019-04-27T12:20:55.675Z,14.60
2019-04-27T12:23:35.087Z,14.60
2019-04-27T12:25:56.400Z,14.50
2019-04-27T12:28:32.810Z,14.50
2019-04-27T12:31:04.678Z,14.50
2019-04-27T12:33:35.696Z,14.70
2019-04-27T12:36:06.739Z,14.70
2019-04-27T12:38:36.576Z,14.70
2019-04-27T12:41:06.798Z,14.90
2019-04-27T12:43:37.472Z,15.00
2019-04-27T12:46:06.877Z,15.20
2019-04-27T12:48:37.462Z,15.40
2019-04-27T12:51:07.034Z,15.60
2019-04-27T12:53:50.580Z,15.80
2019-04-27T12:56:16.694Z,15.80
2019-04-27T12:58:53.650Z,15.90
2019-04-27T13:01:25.840Z,16.10
2019-04-27T13:03:58.885Z,16.30
2019-04-27T13:06:26.419Z,16.10
2019-04-27T13:08:55.862Z,15.80
2019-04-27T13:11:26.708Z,15.40
2019-04-27T13:13:57.669Z,15.30
2019-04-27T13:16:30.284Z,15.60
2019-04-27T13:18:58.950Z,16.30
2019-04-27T13:21:28.218Z,16.90
2019-04-27T13:24:04.287Z,17.30
2019-04-27T13:26:28.668Z,17.20
2019-04-27T13:28:58.898Z,16.90
2019-04-27T13:31:28.170Z,16.50
2019-04-27T13:33:57.438Z,16.30
2019-04-27T13:36:26.734Z,16.20
2019-04-27T13:38:57.011Z,15.90
2019-04-27T13:41:32.585Z,15.70
2019-04-27T13:43:57.530Z,15.40
2019-04-27T13:46:28.515Z,14.90
2019-04-27T13:48:59.439Z,14.10
2019-04-27T13:51:45.103Z,12.90
2019-04-27T13:54:23.828Z,11.70
2019-04-27T13:56:46.179Z,11.30
2019-04-27T13:59:16.530Z,10.70
2019-04-27T14:01:45.866Z,10.50
2019-04-27T14:04:15.126Z,10.20
2019-04-27T14:06:44.395Z,10.20
2019-04-27T14:09:13.718Z,10.00
2019-04-27T14:11:43.060Z,10.00
2019-04-27T14:14:12.318Z,9.90
2019-04-27T14:16:43.783Z,10.00
2019-04-27T14:19:12.766Z,10.00
2019-04-27T14:21:42.039Z,10.00
2019-04-27T14:24:11.295Z,10.10
2019-04-27T14:26:40.575Z,10.20
2019-04-27T14:29:09.831Z,10.20
2019-04-27T14:31:39.646Z,10.10
2019-04-27T14:34:10.015Z,9.90
2019-04-27T14:36:40.567Z,10.00
2019-04-27T14:39:11.735Z,10.10
2019-04-27T14:41:42.785Z,10.20
2019-04-27T14:44:12.053Z,10.30
2019-04-27T14:46:41.320Z,10.40
2019-04-27T14:49:10.591Z,10.40
2019-04-27T14:51:40.173Z,10.50
2019-04-27T14:54:09.503Z,10.50
2019-04-27T14:56:38.983Z,10.60
2019-04-27T14:59:08.323Z,10.80
2019-04-27T15:01:39.923Z,11.00
2019-04-27T15:04:08.545Z,11.10
2019-04-27T15:06:37.807Z,11.30
2019-04-27T15:09:07.511Z,11.50
2019-04-27T15:11:36.780Z,11.70
2019-04-27T15:14:06.281Z,12.00
2019-04-27T15:16:37.926Z,12.50
2019-04-27T15:19:08.143Z,13.20
2019-04-27T15:21:38.905Z,13.80
2019-04-27T15:24:09.978Z,13.80
2019-04-27T15:26:39.575Z,13.60
2019-04-27T15:29:12.122Z,13.40
2019-04-27T15:31:43.090Z,13.40
2019-04-27T15:34:16.979Z,13.20
2019-04-27T15:37:02.460Z,13.20
2019-04-27T15:39:48.959Z,13.00
2019-04-27T15:42:21.951Z,12.80
2019-04-27T15:44:51.227Z,12.70
2019-04-27T15:47:20.500Z,12.80
2019-04-27T15:49:51.118Z,12.70
2019-04-27T15:52:20.791Z,12.70
2019-04-27T15:54:50.275Z,12.60
2019-04-27T15:57:20.848Z,12.50
2019-04-27T15:59:50.183Z,12.50
2019-04-27T16:02:19.449Z,12.40
2019-04-27T16:04:53.164Z,12.30
2019-04-27T16:07:25.236Z,12.20
2019-04-27T16:09:54.348Z,12.30
2019-04-27T16:12:22.630Z,12.50
2019-04-27T16:14:51.918Z,12.80
2019-04-27T16:17:21.174Z,13.10
2019-04-27T16:19:50.674Z,13.20
2019-04-27T16:22:22.711Z,13.30
2019-04-27T16:24:53.529Z,13.40
2019-04-27T16:27:25.901Z,13.30
2019-04-27T16:29:53.356Z,13.20
2019-04-27T16:32:22.978Z,13.10
2019-04-27T16:34:52.242Z,13.00
2019-04-27T16:37:23.142Z,12.90
2019-04-27T16:39:52.452Z,12.80
2019-04-27T16:42:21.706Z,12.60
2019-04-27T16:44:53.183Z,12.60
2019-04-27T16:47:24.560Z,12.50
2019-04-27T16:49:53.199Z,12.40
2019-04-27T16:52:22.529Z,12.20
2019-04-27T16:54:56.946Z,12.10
2019-04-27T16:57:24.619Z,12.00
2019-04-27T17:07:46.519Z,11.70
2019-04-27T17:10:16.404Z,11.50
2019-04-27T17:12:48.670Z,11.10
2019-04-27T17:15:36.259Z,10.90
2019-04-27T17:18:24.383Z,11.00
2019-04-27T17:21:02.697Z,10.90
2019-04-27T17:23:31.381Z,10.90
2019-04-27T17:26:09.313Z,10.90
2019-04-27T17:28:37.462Z,10.80
2019-04-27T17:31:05.194Z,10.80
2019-04-27T17:33:39.006Z,10.80
2019-04-27T17:36:12.167Z,10.90
2019-04-27T17:38:42.606Z,11.10
2019-04-27T17:41:12.700Z,11.20
2019-04-27T17:43:42.715Z,11.30
2019-04-27T17:46:13.156Z,11.20
2019-04-27T17:48:42.543Z,11.10
2019-04-27T17:51:12.037Z,11.10
2019-04-27T17:53:41.315Z,11.10
2019-04-27T17:56:10.580Z,11.00
2019-04-27T17:58:40.936Z,10.90
2019-04-27T18:01:13.914Z,10.80
2019-04-27T18:03:41.895Z,10.70
2019-04-27T18:06:11.154Z,10.60
2019-04-27T18:08:40.481Z,10.50
2019-04-27T18:11:09.762Z,10.30
2019-04-27T18:13:42.034Z,10.20
2019-04-27T18:16:10.254Z,10.20
2019-04-27T18:18:48.669Z,10.20
2019-04-27T18:21:19.783Z,10.10
2019-04-27T18:23:55.265Z,10.00
2019-04-27T18:26:24.604Z,10.10
2019-04-27T18:28:54.194Z,10.00
2019-04-27T18:31:23.475Z,10.00
2019-04-27T18:33:52.807Z,9.90
2019-04-27T18:36:22.142Z,9.90
2019-04-27T18:38:51.391Z,9.90
2019-04-27T18:41:20.884Z,9.90
2019-04-27T18:43:52.143Z,9.80
2019-04-27T18:46:24.493Z,9.70
2019-04-27T18:48:54.089Z,9.70
2019-04-27T18:51:31.035Z,9.50
2019-04-27T18:54:03.584Z,9.50
2019-04-27T18:56:33.496Z,9.60
2019-04-27T18:59:03.133Z,9.70
2019-04-27T19:01:32.460Z,9.70
2019-04-27T19:04:01.719Z,9.60
2019-04-27T19:06:30.979Z,9.60
2019-04-27T19:09:00.239Z,9.60
2019-04-27T19:11:29.498Z,9.60
2019-04-27T19:13:59.120Z,9.70
2019-04-27T19:16:29.219Z,9.60
2019-04-27T19:18:58.599Z,9.60
2019-04-27T19:21:28.831Z,9.60
2019-04-27T19:23:58.554Z,9.70
2019-04-27T19:26:29.559Z,9.60
2019-04-27T19:29:09.127Z,9.60
2019-04-27T19:31:40.018Z,9.50
2019-04-27T19:34:10.253Z,9.40
2019-04-27T19:36:39.511Z,9.40
2019-04-27T19:39:10.011Z,9.50
2019-04-27T19:41:39.535Z,9.50
2019-04-27T19:44:10.223Z,9.50
2019-04-27T19:46:40.274Z,9.40
2019-04-27T19:49:09.671Z,9.40
2019-04-27T19:51:39.297Z,9.40
2019-04-27T19:54:09.727Z,9.40
2019-04-27T19:56:38.989Z,9.30
2019-04-27T19:59:09.883Z,9.30
2019-04-27T20:01:48.125Z,9.20
2019-04-27T20:04:22.166Z,9.20
2019-04-27T20:06:51.430Z,9.20
2019-04-27T20:09:25.002Z,9.20
2019-04-27T20:11:54.279Z,9.30
2019-04-27T20:14:23.761Z,9.40
2019-04-27T20:16:53.014Z,9.40
2019-04-27T20:19:22.282Z,9.50
2019-04-27T20:21:51.548Z,9.50
2019-04-27T20:24:22.737Z,9.50
2019-04-27T20:26:51.770Z,9.50
2019-04-27T20:29:21.761Z,9.50
2019-04-27T20:31:51.278Z,9.50
2019-04-27T20:34:20.933Z,9.40
2019-04-27T20:36:52.894Z,9.40
2019-04-27T20:39:22.192Z,9.30
2019-04-27T20:41:51.519Z,9.30
2019-04-27T20:44:21.115Z,9.30
2019-04-27T20:46:51.387Z,9.30
2019-04-27T20:49:21.011Z,9.30
2019-04-27T20:51:55.815Z,9.30
2019-04-27T20:54:25.067Z,9.20
2019-04-27T20:56:57.196Z,9.20
2019-04-27T20:59:25.275Z,9.20
2019-04-27T21:01:54.535Z,9.30
2019-04-27T21:04:25.476Z,9.20
2019-04-27T21:06:56.374Z,9.10
2019-04-27T21:09:25.666Z,9.10
2019-04-27T21:11:54.926Z,9.00
2019-04-27T21:14:24.207Z,9.00
2019-04-27T21:16:53.467Z,9.00
2019-04-27T21:19:22.730Z,9.00
2019-04-27T21:21:52.212Z,9.00
2019-04-27T21:24:22.829Z,9.00
2019-04-27T21:26:53.302Z,9.00
2019-04-27T21:29:22.567Z,9.00
2019-04-27T21:31:52.100Z,9.10
2019-04-27T21:34:21.389Z,9.00
2019-04-27T21:36:51.115Z,9.00
2019-04-27T21:39:21.700Z,8.90
2019-04-27T21:41:51.663Z,8.90
2019-04-27T21:44:21.775Z,8.90
2019-04-27T21:46:51.859Z,8.90
2019-04-27T21:49:22.741Z,8.90
2019-04-27T21:52:02.551Z,8.90
2019-04-27T21:54:33.530Z,8.90
2019-04-27T21:57:02.947Z,8.80
2019-04-27T21:59:32.206Z,8.80
2019-04-27T22:02:03.178Z,8.80
2019-04-27T22:04:32.503Z,8.90
2019-04-27T22:07:02.057Z,8.90
2019-04-27T22:09:31.319Z,8.90
2019-04-27T22:12:02.521Z,8.90
2019-04-27T22:14:31.530Z,8.80
2019-04-27T22:17:00.939Z,8.80
2019-04-27T22:19:31.095Z,8.70
2019-04-27T22:22:02.143Z,8.60
2019-04-27T22:24:33.042Z,8.50
2019-04-27T22:27:02.299Z,8.60
2019-04-27T22:29:32.098Z,8.60
2019-04-27T22:32:01.899Z,8.60
2019-04-27T22:34:31.334Z,8.50
2019-04-27T22:37:02.699Z,8.60
2019-04-27T22:39:36.522Z,8.60
2019-04-27T22:42:07.426Z,8.60
2019-04-27T22:44:38.323Z,8.60
2019-04-27T22:47:07.595Z,8.60
2019-04-27T22:49:36.858Z,8.50
2019-04-27T22:52:06.134Z,8.50
2019-04-27T22:54:35.623Z,8.50
2019-04-27T22:57:06.517Z,8.60
2019-04-27T22:59:37.414Z,8.60
2019-04-27T23:02:11.566Z,8.60
2019-04-27T23:04:48.263Z,8.60
2019-04-27T23:07:17.529Z,8.60
2019-04-27T23:09:46.785Z,8.50
2019-04-27T23:12:16.116Z,8.50
2019-04-27T23:14:45.376Z,8.50
2019-04-27T23:17:32.714Z,8.40
2019-04-27T23:20:01.975Z,8.40
2019-04-27T23:22:31.579Z,8.40
2019-04-27T23:25:01.250Z,8.40
2019-04-27T23:27:31.816Z,8.40
2019-04-27T23:30:01.556Z,8.40
2019-04-27T23:32:32.599Z,8.40
2019-04-27T23:35:01.864Z,8.40
2019-04-27T23:37:31.190Z,8.40
2019-04-27T23:40:00.599Z,8.40
2019-04-27T23:42:31.661Z,8.30
2019-04-27T23:45:01.203Z,8.30
2019-04-27T23:47:31.444Z,8.30
2019-04-27T23:50:00.920Z,8.40
2019-04-27T23:52:50.615Z,8.30
2019-04-27T23:55:22.151Z,8.30
2019-04-27T23:57:51.410Z,8.30
